Time;durP1;ratioP1;P1;durP2;ratioP2;P2;SDS_P1;SDS_P2;PMS_P1;PMS_P2;Temp;Humidity;BMP_temperature;BMP_pressure;BME280_temperature;BME280_humidity;BME280_pressure;Samples;Min_cycle;Max_cycle;Signal;HPM_P1;HPM_P2
2024/01/05 00:03:18;;;;;;;5.55;2.90;;;;;;;6.75;89.48;98050.47;7224495;40;20242;31
2024/01/05 00:08:54;;;;;;;13.00;6.25;;;;;;;6.69;89.58;98051.16;7218601;40;20435;31
2024/01/05 00:14:29;;;;;;;9.77;2.30;;;;;;;6.62;89.55;98042.13;7157577;40;20373;31
2024/01/05 00:20:04;;;;;;;7.33;2.77;;;;;;;6.67;89.77;98037.06;7211142;40;20348;31
2024/01/05 00:25:40;;;;;;;8.93;2.50;;;;;;;6.71;89.52;98021.53;7230256;40;20323;31
2024/01/05 00:31:00;;;;;;;7.05;2.10;;;;;;;6.73;90.44;98019.50;7223935;40;20242;31
2024/01/05 00:36:36;;;;;;;9.60;3.20;;;;;;;6.67;89.99;98009.50;7255808;39;20374;31
2024/01/05 00:42:10;;;;;;;11.18;5.75;;;;;;;6.72;90.42;97996.41;7188323;40;20289;31
2024/01/05 00:47:46;;;;;;;66.47;33.37;;;;;;;6.76;89.84;98001.25;7135883;40;20411;31
2024/01/05 00:53:06;;;;;;;22.40;10.23;;;;;;;6.60;88.87;98006.66;7183421;40;20360;31
2024/01/05 00:58:43;;;;;;;7.00;3.53;;;;;;;6.52;88.78;98008.50;7203470;40;20268;31
2024/01/05 01:04:03;;;;;;;7.53;2.83;;;;;;;6.52;89.17;97997.81;7169200;40;20253;31
2024/01/05 01:09:24;;;;;;;12.63;3.10;;;;;;;6.47;89.91;97990.28;7212864;40;20293;31
2024/01/05 01:15:01;;;;;;;6.65;2.25;;;;;;;6.42;89.12;97989.13;7256138;39;20259;31
2024/01/05 01:20:21;;;;;;;4.50;2.20;;;;;;;6.49;89.19;97987.44;7233489;40;20351;31
2024/01/05 01:25:41;;;;;;;7.53;2.60;;;;;;;6.49;89.97;97979.41;7250288;39;20398;31
2024/01/05 01:31:18;;;;;;;4.43;2.37;;;;;;;6.43;88.86;97966.72;7252730;39;20263;31
2024/01/05 01:36:53;;;;;;;5.20;2.80;;;;;;;6.42;89.66;97976.56;7228059;40;20330;31
2024/01/05 01:42:13;;;;;;;5.10;2.17;;;;;;;6.42;88.96;97979.25;7244056;40;20239;31
2024/01/05 01:47:49;;;;;;;4.47;2.20;;;;;;;6.27;89.10;97967.59;7206251;40;20258;31
2024/01/05 01:53:24;;;;;;;6.10;2.20;;;;;;;6.25;88.95;97962.41;7214923;40;20262;31
2024/01/05 01:58:59;;;;;;;11.23;6.00;;;;;;;6.33;88.83;97958.87;7190603;40;20258;31
2024/01/05 02:04:36;;;;;;;8.03;2.30;;;;;;;6.36;89.66;97957.72;7216269;40;20350;31
2024/01/05 02:10:11;;;;;;;5.00;2.40;;;;;;;6.22;89.88;97949.38;7185484;40;20275;31
2024/01/05 02:20:51;;;;;;;9.07;4.77;;;;;;;6.04;90.11;97940.69;7230680;40;21330;31
2024/01/05 02:31:28;;;;;;;12.07;4.30;;;;;;;6.24;90.78;97922.44;7236443;40;21453;31
2024/01/05 02:36:49;;;;;;;15.60;5.50;;;;;;;6.27;90.79;97917.56;7184645;40;20298;31
2024/01/05 02:42:24;;;;;;;11.10;5.03;;;;;;;6.40;90.85;97926.91;7244890;40;20306;31
2024/01/05 02:48:01;;;;;;;18.33;8.83;;;;;;;6.42;90.33;97916.88;7238004;40;20249;31
2024/01/05 02:53:35;;;;;;;9.83;4.17;;;;;;;6.44;89.78;97907.69;7178589;40;20242;31
2024/01/05 02:58:55;;;;;;;7.90;3.60;;;;;;;6.55;90.60;97901.09;7155462;40;20414;31
2024/01/05 03:04:31;;;;;;;10.17;3.17;;;;;;;6.64;90.16;97881.31;7156927;40;20275;31
2024/01/05 03:10:07;;;;;;;9.25;3.20;;;;;;;6.67;90.84;97878.31;7121490;40;20306;31
2024/01/05 03:15:27;;;;;;;9.70;3.60;;;;;;;6.76;91.58;97871.88;7199836;40;20377;31
2024/01/05 03:21:03;;;;;;;11.33;3.60;;;;;;;6.82;90.47;97847.09;7167326;40;20468;31
2024/01/05 03:26:24;;;;;;;10.98;3.60;;;;;;;6.86;90.87;97847.56;7249350;40;20286;31
2024/01/05 03:31:59;;;;;;;10.90;3.33;;;;;;;6.89;91.29;97849.91;7252826;39;20260;31
2024/01/05 03:37:35;;;;;;;7.90;3.30;;;;;;;6.86;90.32;97845.72;7225540;40;20238;31
2024/01/05 03:43:10;;;;;;;12.03;3.90;;;;;;;6.90;90.93;97841.69;7208887;40;20242;31
2024/01/05 03:48:45;;;;;;;8.40;3.55;;;;;;;6.96;91.32;97837.47;7181080;40;20247;31
2024/01/05 03:54:20;;;;;;;11.77;4.12;;;;;;;6.95;90.97;97823.25;6992814;40;20391;31
2024/01/05 03:59:56;;;;;;;11.57;3.83;;;;;;;6.99;90.67;97823.72;7238020;40;20246;31
2024/01/05 04:05:17;;;;;;;11.00;3.40;;;;;;;7.05;91.13;97820.34;7191609;40;20342;31
2024/01/05 04:10:53;;;;;;;11.15;3.90;;;;;;;7.06;91.02;97808.63;7152738;40;20353;31
2024/01/05 04:21:18;;;;;;;8.20;3.67;;;;;;;7.12;90.26;97803.34;7197339;40;20881;31
2024/01/05 04:26:54;;;;;;;9.60;3.50;;;;;;;7.06;90.94;97798.72;7263014;40;20241;31
2024/01/05 04:32:29;;;;;;;9.60;2.90;;;;;;;7.11;90.61;97801.69;7244834;40;20239;31
2024/01/05 04:37:51;;;;;;;9.67;2.97;;;;;;;7.17;90.86;97795.63;7238315;40;20524;31
2024/01/05 04:43:25;;;;;;;9.67;3.47;;;;;;;7.18;90.75;97794.62;7259794;40;20311;31
2024/01/05 04:48:47;;;;;;;9.93;3.30;;;;;;;7.23;90.69;97796.75;7229689;40;20249;31
2024/01/05 04:54:07;;;;;;;8.90;3.13;;;;;;;7.25;91.66;97803.59;7259039;40;20290;31
2024/01/05 04:59:43;;;;;;;8.57;3.33;;;;;;;7.15;91.00;97796.81;7253512;40;20241;31
2024/01/05 05:05:04;;;;;;;9.15;3.60;;;;;;;7.16;90.80;97801.97;7256722;40;20241;31
2024/01/05 05:10:39;;;;;;;8.20;3.70;;;;;;;7.16;91.23;97801.16;7278143;40;20374;31
2024/01/05 05:21:44;;;;;;;6.80;3.00;;;;;;;7.13;91.46;97801.50;7234814;40;20253;31
2024/01/05 05:27:06;;;;;;;5.50;3.05;;;;;;;7.21;90.92;97804.13;7296795;39;20237;31
2024/01/05 05:32:41;;;;;;;4.95;2.45;;;;;;;7.27;91.24;97799.91;7260493;40;20250;31
2024/01/05 05:38:16;;;;;;;6.85;2.45;;;;;;;7.37;91.05;97795.94;7187596;40;20454;31
2024/01/05 05:43:38;;;;;;;5.20;1.93;;;;;;;7.53;91.31;97790.44;7228715;40;20414;31
2024/01/05 05:49:15;;;;;;;4.30;1.80;;;;;;;7.59;90.89;97792.38;7244349;40;20261;31
2024/01/05 05:54:35;;;;;;;5.47;2.50;;;;;;;7.64;90.62;97800.72;7257803;39;20381;31
2024/01/05 06:00:10;;;;;;;4.05;2.20;;;;;;;7.66;91.34;97787.97;7275012;39;20255;31
2024/01/05 06:05:46;;;;;;;4.80;1.83;;;;;;;7.70;91.38;97781.22;7236740;40;20384;31
2024/01/05 06:11:07;;;;;;;7.75;1.90;;;;;;;7.78;90.77;97798.25;7238944;40;20246;31
2024/01/05 06:16:27;;;;;;;5.10;2.05;;;;;;;7.78;91.25;97806.28;7269083;39;20257;31
2024/01/05 06:22:03;;;;;;;4.90;2.20;;;;;;;7.79;91.08;97798.06;7285273;39;20405;31
2024/01/05 06:27:39;;;;;;;6.40;2.70;;;;;;;7.84;91.29;97806.41;7303948;39;20233;31
2024/01/05 06:33:14;;;;;;;5.65;2.00;;;;;;;7.85;91.82;97809.91;7278124;40;20297;31
2024/01/05 06:38:52;;;;;;;8.40;2.55;;;;;;;7.84;91.60;97809.09;7208028;40;20508;31
2024/01/05 06:44:28;;;;;;;5.20;2.30;;;;;;;7.84;91.01;97810.94;7155819;40;20247;31
2024/01/05 06:50:03;;;;;;;5.37;2.07;;;;;;;7.86;91.33;97817.75;7137514;40;20378;31
2024/01/05 06:55:39;;;;;;;6.33;2.53;;;;;;;7.88;91.44;97821.09;7190353;40;20261;31
2024/01/05 07:01:17;;;;;;;7.27;2.60;;;;;;;7.90;91.94;97821.75;7181302;40;20258;31
2024/01/05 07:06:50;;;;;;;8.20;4.10;;;;;;;7.95;91.73;97830.06;7202481;40;20242;31
2024/01/05 07:12:26;;;;;;;7.03;3.30;;;;;;;7.97;91.11;97821.84;7127866;40;20349;31
2024/01/05 07:18:01;;;;;;;7.60;3.20;;;;;;;7.99;91.45;97825.16;7141330;40;20267;31
2024/01/05 07:28:39;;;;;;;8.53;3.53;;;;;;;7.99;91.12;97817.97;7213363;40;20365;31
2024/01/05 07:33:57;;;;;;;8.88;3.35;;;;;;;8.03;91.33;97813.09;7183439;40;20293;31
2024/01/05 07:39:15;;;;;;;5.80;3.00;;;;;;;8.09;91.85;97815.84;7242357;40;21318;31
2024/01/05 07:44:51;;;;;;;4.50;2.60;;;;;;;8.06;91.37;97792.06;7318628;39;20251;31
2024/01/05 07:50:26;;;;;;;6.45;4.40;;;;;;;8.09;91.79;97790.84;7257904;40;20254;31
2024/01/05 07:56:01;;;;;;;4.25;2.65;;;;;;;8.09;91.05;97796.22;7221241;40;20269;31
2024/01/05 08:01:36;;;;;;;8.50;4.20;;;;;;;8.08;91.58;97811.50;7220067;40;20260;31
2024/01/05 08:07:12;;;;;;;9.05;3.80;;;;;;;8.08;91.76;97798.06;7217065;40;20265;31
2024/01/05 08:12:47;;;;;;;15.60;7.50;;;;;;;8.05;91.84;97790.41;7157249;40;20377;31
2024/01/05 08:18:23;;;;;;;9.60;3.50;;;;;;;8.00;91.17;97786.59;7185104;40;20282;31
2024/01/05 08:23:58;;;;;;;8.60;4.00;;;;;;;7.99;91.58;97784.94;7185074;40;20228;31
2024/01/05 08:29:33;;;;;;;6.40;3.23;;;;;;;7.99;91.48;97777.72;7169951;40;20319;31
2024/01/05 08:35:07;;;;;;;7.60;3.70;;;;;;;8.01;91.72;97777.53;7147230;40;20258;31
2024/01/05 08:40:42;;;;;;;7.80;2.53;;;;;;;8.16;91.38;97776.50;7178253;40;20335;31
2024/01/05 08:46:02;;;;;;;9.10;2.20;;;;;;;8.35;90.46;97782.34;7178991;40;20243;31
2024/01/05 08:51:39;;;;;;;4.75;1.90;;;;;;;8.42;89.94;97799.38;7175903;40;20258;31
2024/01/05 08:56:57;;;;;;;6.05;2.40;;;;;;;8.52;89.43;97794.53;7177044;40;20356;31
2024/01/05 09:02:17;;;;;;;9.67;3.50;;;;;;;8.49;90.53;97785.03;7181087;40;20336;31
2024/01/05 09:07:54;;;;;;;6.40;2.30;;;;;;;8.44;90.59;97805.37;7186352;40;20256;31
2024/01/05 09:13:30;;;;;;;6.50;2.60;;;;;;;8.49;91.01;97803.81;7249596;39;20283;31
2024/01/05 09:18:50;;;;;;;4.73;2.40;;;;;;;8.54;90.94;97817.50;7277548;40;20386;31
2024/01/05 09:24:28;;;;;;;5.73;2.77;;;;;;;8.58;90.43;97809.91;7297591;39;20256;31
2024/01/05 09:29:46;;;;;;;5.87;2.10;;;;;;;8.66;90.46;97809.78;7198950;40;20238;31
2024/01/05 09:35:22;;;;;;;5.77;1.87;;;;;;;8.68;89.32;97818.50;7235530;40;20342;31
2024/01/05 09:40:55;;;;;;;4.73;2.10;;;;;;;8.70;88.98;97816.44;7218185;40;20362;31
2024/01/05 09:46:30;;;;;;;4.87;1.93;;;;;;;8.76;87.74;97834.50;7208418;39;20315;31
2024/01/05 09:52:06;;;;;;;2.80;1.27;;;;;;;8.82;86.92;97825.69;7207671;40;20246;31
2024/01/05 09:57:44;;;;;;;7.03;4.10;;;;;;;8.88;86.57;97830.31;7167434;40;20258;31
2024/01/05 10:03:20;;;;;;;2.90;1.77;;;;;;;8.94;85.77;97839.47;7176973;40;20246;31
2024/01/05 10:08:41;;;;;;;4.40;1.60;;;;;;;9.01;85.93;97833.12;7137290;40;20248;31
2024/01/05 10:14:18;;;;;;;2.20;1.50;;;;;;;9.04;84.02;97840.81;7143145;40;20387;31
2024/01/05 10:19:35;;;;;;;2.80;1.30;;;;;;;9.04;83.47;97842.66;6971387;40;21036;31
2024/01/05 10:24:53;;;;;;;3.00;1.45;;;;;;;9.03;82.67;97857.16;7219974;39;20357;31
2024/01/05 10:30:34;;;;;;;4.13;1.60;;;;;;;9.00;82.93;97852.97;7256032;39;20455;31
2024/01/05 10:36:10;;;;;;;3.60;1.40;;;;;;;9.03;82.37;97851.78;7234782;40;20252;31
2024/01/05 10:41:46;;;;;;;3.33;1.40;;;;;;;9.11;82.16;97835.53;7220034;40;20380;31
2024/01/05 10:47:21;;;;;;;4.23;1.60;;;;;;;9.15;81.58;97827.91;7189573;40;20238;31
2024/01/05 10:52:57;;;;;;;3.27;1.40;;;;;;;9.19;80.42;97821.94;7179703;40;20262;31
2024/01/05 10:58:09;;;;;;;3.03;1.60;;;;;;;9.28;81.01;97834.25;5169096;50;20232;-79
2024/01/05 11:03:42;;;;;;;2.55;1.80;;;;;;;9.30;80.83;97832.19;7187025;40;20258;31
2024/01/05 11:09:19;;;;;;;3.47;1.53;;;;;;;9.30;78.77;97824.13;7154408;40;20270;31
2024/01/05 11:14:57;;;;;;;3.80;1.70;;;;;;;9.31;77.90;97804.28;7185623;40;20241;31
2024/01/05 11:20:36;;;;;;;2.77;1.60;;;;;;;9.32;78.32;97800.56;7160086;40;20309;31
2024/01/05 11:25:57;;;;;;;4.10;2.20;;;;;;;9.40;78.09;97802.28;7206814;40;20246;31
2024/01/05 11:31:38;;;;;;;3.03;1.43;;;;;;;9.42;77.20;97800.25;7208157;40;20230;31
2024/01/05 11:37:14;;;;;;;3.23;1.33;;;;;;;9.41;77.16;97777.06;7187208;40;20338;31
2024/01/05 11:42:35;;;;;;;2.87;1.58;;;;;;;9.45;76.85;97770.28;7225991;40;20291;31
2024/01/05 11:53:28;;;;;;;2.25;1.10;;;;;;;9.48;75.89;97783.31;7279984;39;20277;31
2024/01/05 11:59:03;;;;;;;2.00;1.15;;;;;;;9.46;76.23;97780.84;7219805;40;20242;31
2024/01/05 12:04:38;;;;;;;2.83;1.40;;;;;;;9.47;76.51;97779.81;7240513;40;20388;31
2024/01/05 12:10:15;;;;;;;3.55;2.15;;;;;;;9.53;76.55;97775.50;7217609;40;20246;31
2024/01/05 12:15:50;;;;;;;3.63;1.47;;;;;;;9.54;77.00;97785.25;7141876;40;20376;31
2024/01/05 12:21:24;;;;;;;2.00;1.30;;;;;;;9.57;77.24;97786.69;7181131;40;20251;31
2024/01/05 12:27:00;;;;;;;3.70;1.30;;;;;;;9.58;77.49;97786.50;7179004;40;20261;31
2024/01/05 12:32:36;;;;;;;3.07;1.40;;;;;;;9.58;77.38;97788.38;7187863;40;20263;31
2024/01/05 12:37:57;;;;;;;3.07;1.30;;;;;;;9.61;77.56;97771.88;7217503;40;20246;31
2024/01/05 12:43:34;;;;;;;3.27;1.30;;;;;;;9.61;78.41;97761.09;7237969;40;20324;31
2024/01/05 12:48:53;;;;;;;4.30;1.70;;;;;;;9.59;78.89;97750.53;7194339;40;20239;31
2024/01/05 12:54:29;;;;;;;2.55;1.60;;;;;;;9.60;78.99;97752.19;7235133;39;21271;31
2024/01/05 13:00:05;;;;;;;2.55;1.60;;;;;;;9.61;78.83;97753.84;7220616;40;20355;31
2024/01/05 13:05:41;;;;;;;5.45;2.75;;;;;;;9.68;79.41;97754.72;7159167;40;20246;31
2024/01/05 13:11:02;;;;;;;4.50;1.57;;;;;;;9.75;79.13;97752.06;7201999;40;20251;31
2024/01/05 13:16:35;;;;;;;9.35;6.50;;;;;;;9.75;78.92;97754.75;7235131;39;21474;31
2024/01/05 13:22:11;;;;;;;6.20;2.90;;;;;;;9.72;78.97;97761.38;7243904;40;20238;31
2024/01/05 13:27:30;;;;;;;4.00;2.20;;;;;;;9.66;79.00;97764.84;7226613;40;20486;31
2024/01/05 13:33:04;;;;;;;4.27;2.10;;;;;;;9.63;79.01;97762.56;7199379;40;20262;31
2024/01/05 13:38:24;;;;;;;4.50;1.90;;;;;;;9.65;78.93;97771.28;7240531;39;20269;31
2024/01/05 13:43:44;;;;;;;2.50;1.70;;;;;;;9.66;79.51;97772.06;7286147;39;20408;31
2024/01/05 13:49:21;;;;;;;5.35;2.30;;;;;;;9.59;79.36;97772.03;7307599;39;20329;31
2024/01/05 13:54:56;;;;;;;3.58;2.67;;;;;;;9.61;78.82;97775.34;7300006;39;20333;31
2024/01/05 14:00:17;;;;;;;4.80;2.00;;;;;;;9.57;78.75;97770.56;7268252;39;20269;31
2024/01/05 14:05:53;;;;;;;3.67;1.70;;;;;;;9.55;79.21;97781.53;7256255;40;20240;31
2024/01/05 14:11:29;;;;;;;3.33;1.60;;;;;;;9.54;79.35;97779.03;7224692;40;20379;31
2024/01/05 14:17:03;;;;;;;3.70;1.60;;;;;;;9.55;79.40;97783.37;7226038;40;20273;31
2024/01/05 14:22:23;;;;;;;3.00;1.90;;;;;;;9.58;79.71;97794.59;7259065;40;21327;31
2024/01/05 14:27:59;;;;;;;3.60;1.50;;;;;;;9.52;79.50;97798.06;7277666;40;20244;31
2024/01/05 14:33:34;;;;;;;11.70;8.10;;;;;;;9.48;79.66;97811.03;7255758;40;20430;31
2024/01/05 14:39:06;;;;;;;4.30;2.10;;;;;;;9.45;80.00;97808.75;7281702;39;20237;31
2024/01/05 14:44:39;;;;;;;3.40;1.70;;;;;;;9.35;79.49;97804.72;7283273;39;20250;31
2024/01/05 14:55:01;;;;;;;3.10;1.80;;;;;;;9.31;79.39;97806.13;7215967;40;20278;31
2024/01/05 15:00:32;;;;;;;3.67;1.70;;;;;;;9.21;78.39;97805.66;7185677;40;20382;31
2024/01/05 15:10:56;;;;;;;2.10;1.70;;;;;;;9.14;78.50;97812.78;7317762;39;20852;31
2024/01/05 15:16:33;;;;;;;4.50;1.80;;;;;;;9.05;78.78;97802.16;7307095;39;20263;31
2024/01/05 15:22:07;;;;;;;3.45;1.85;;;;;;;9.04;78.47;97811.25;7257469;39;20264;31
2024/01/05 15:27:26;;;;;;;8.40;4.90;;;;;;;9.09;78.83;97820.59;7237023;40;20238;31
2024/01/05 15:33:04;;;;;;;6.77;3.90;;;;;;;8.94;78.30;97817.97;7240508;40;20257;31
2024/01/05 15:38:38;;;;;;;22.03;11.33;;;;;;;8.98;78.77;97814.72;7226327;40;20323;31
2024/01/05 15:44:13;;;;;;;12.67;7.17;;;;;;;8.92;78.81;97825.38;7235590;40;20267;31
2024/01/05 15:49:50;;;;;;;16.37;11.73;;;;;;;8.89;79.14;97831.13;7242452;40;20241;31
2024/01/05 15:55:26;;;;;;;13.90;9.33;;;;;;;8.83;78.85;97846.16;7208090;40;20350;31
2024/01/05 16:00:46;;;;;;;7.25;5.35;;;;;;;8.74;78.92;97863.41;7179649;40;20250;31
2024/01/05 16:06:26;;;;;;;8.87;4.90;;;;;;;8.64;79.76;97856.69;7174119;40;20373;31
2024/01/05 16:12:03;;;;;;;5.75;3.90;;;;;;;8.49;79.52;97859.37;7179949;40;20328;31
2024/01/05 16:17:20;;;;;;;4.40;3.13;;;;;;;8.38;80.26;97859.84;7182343;40;20432;31
2024/01/05 16:22:56;;;;;;;4.80;3.10;;;;;;;8.24;80.35;97872.22;7230916;40;20247;31
2024/01/05 16:28:31;;;;;;;3.80;2.70;;;;;;;8.15;79.97;97876.84;7219350;40;20238;31
2024/01/05 16:34:02;;;;;;;4.33;2.80;;;;;;;8.04;79.98;97881.81;7245642;40;20351;31
2024/01/05 16:39:38;;;;;;;6.15;3.10;;;;;;;7.96;80.68;97892.63;7200702;40;20257;31
2024/01/05 16:44:58;;;;;;;4.53;2.37;;;;;;;7.81;80.99;97894.44;7167646;40;20259;31
2024/01/05 16:50:34;;;;;;;7.50;3.77;;;;;;;7.76;81.42;97894.16;7181521;40;20316;31
2024/01/05 16:56:09;;;;;;;4.90;3.10;;;;;;;7.81;80.46;97903.31;7220960;40;20307;31
2024/01/05 17:01:27;;;;;;;3.33;2.22;;;;;;;7.86;80.27;97898.22;7045651;40;20308;31
2024/01/05 17:06:48;;;;;;;2.77;1.80;;;;;;;7.92;80.39;97900.19;7249151;40;20245;31
2024/01/05 17:12:23;;;;;;;3.80;2.60;;;;;;;7.82;80.56;97894.25;7256647;39;20238;31
2024/01/05 17:17:58;;;;;;;4.30;1.85;;;;;;;7.71;80.15;97900.06;7337070;39;20435;31
2024/01/05 17:23:19;;;;;;;3.63;2.17;;;;;;;7.61;80.42;97899.47;7273447;39;21226;31
2024/01/05 17:28:56;;;;;;;12.70;10.17;;;;;;;7.51;81.46;97901.53;7296085;39;20260;31
2024/01/05 17:34:15;;;;;;;63.80;42.17;;;;;;;7.59;81.32;97906.88;7188338;40;20258;31
2024/01/05 17:39:50;;;;;;;45.30;29.80;;;;;;;7.61;80.22;97899.47;7246389;39;20245;31
2024/01/05 17:45:23;;;;;;;28.70;19.40;;;;;;;7.66;80.76;97910.50;7236390;40;20295;31
2024/01/05 17:50:57;;;;;;;14.07;9.83;;;;;;;7.73;80.49;97919.47;7216452;40;20249;31
2024/01/05 17:56:35;;;;;;;10.07;7.40;;;;;;;7.74;81.20;97926.50;7236193;40;20262;31
2024/01/05 18:02:11;;;;;;;11.80;7.60;;;;;;;7.70;80.69;97928.72;7219934;40;20257;31
2024/01/05 18:07:50;;;;;;;6.80;3.70;;;;;;;7.69;80.51;97931.56;7173532;40;20397;31
2024/01/05 18:13:07;;;;;;;4.63;3.00;;;;;;;7.66;80.55;97926.56;7158947;40;20250;31
2024/01/05 18:18:42;;;;;;;9.17;6.03;;;;;;;7.58;81.56;97929.31;7193711;40;20324;31
2024/01/05 18:24:15;;;;;;;7.90;4.90;;;;;;;7.56;81.49;97929.50;7215054;40;21283;31
2024/01/05 18:29:35;;;;;;;6.70;4.00;;;;;;;7.58;81.42;97938.22;7151481;40;20256;31
2024/01/05 18:35:11;;;;;;;8.60;4.10;;;;;;;7.60;81.98;97935.31;7179995;40;20257;31
2024/01/05 18:40:46;;;;;;;3.70;3.30;;;;;;;7.53;81.90;97939.75;7159280;40;20342;31
2024/01/05 18:46:07;;;;;;;5.60;3.80;;;;;;;7.44;81.64;97941.66;7206594;39;20233;31
2024/01/05 18:51:43;;;;;;;5.45;3.65;;;;;;;7.35;81.20;97933.84;7321070;39;20255;31
2024/01/05 18:57:04;;;;;;;6.17;2.63;;;;;;;7.34;81.63;97935.69;7230546;40;20414;31
2024/01/05 19:02:37;;;;;;;4.05;3.30;;;;;;;7.31;82.18;97938.72;7262473;40;20374;31
2024/01/05 19:08:13;;;;;;;10.57;4.60;;;;;;;7.25;82.19;97937.56;7185739;40;20384;31
2024/01/05 19:13:33;;;;;;;8.17;4.30;;;;;;;7.24;82.31;97948.47;7136504;40;20243;31
2024/01/05 19:18:52;;;;;;;4.50;3.40;;;;;;;7.20;82.37;97953.34;7145520;40;20729;31
2024/01/05 19:24:29;;;;;;;4.93;4.27;;;;;;;7.18;81.90;97949.19;7163210;40;20270;31
2024/01/05 19:35:07;;;;;;;9.70;8.70;;;;;;;7.21;82.52;97968.41;7275297;39;20719;31
2024/01/05 19:40:43;;;;;;;26.10;23.37;;;;;;;7.18;81.79;97960.75;7258672;40;20247;31
2024/01/05 19:46:19;;;;;;;18.35;15.35;;;;;;;7.16;81.34;97959.22;7194648;40;20354;31
2024/01/05 19:51:55;;;;;;;12.80;9.35;;;;;;;7.14;82.51;97962.09;7159787;40;20482;31
2024/01/05 19:57:30;;;;;;;8.65;5.60;;;;;;;7.14;82.35;97967.47;7175815;40;20245;31
2024/01/05 20:03:05;;;;;;;7.10;5.30;;;;;;;7.14;82.41;97978.19;7191288;40;20257;31
2024/01/05 20:08:26;;;;;;;5.13;3.00;;;;;;;7.10;81.26;97984.06;7189476;40;20243;31
2024/01/05 20:14:01;;;;;;;7.60;4.10;;;;;;;7.03;82.13;97999.97;7200109;40;20365;31
2024/01/05 20:19:37;;;;;;;6.43;4.93;;;;;;;7.08;81.97;97994.94;7213832;40;20426;31
2024/01/05 20:24:57;;;;;;;7.00;4.67;;;;;;;7.06;82.17;97999.66;7181030;40;20242;31
2024/01/05 20:30:33;;;;;;;7.60;4.15;;;;;;;6.94;81.61;97992.97;7172172;40;20257;31
2024/01/05 20:36:08;;;;;;;6.40;4.30;;;;;;;6.90;81.94;97994.34;7202624;40;20404;31
2024/01/05 20:41:43;;;;;;;7.22;4.52;;;;;;;6.92;83.50;97991.50;7226857;40;20250;31
2024/01/05 20:47:20;;;;;;;7.30;4.73;;;;;;;6.88;83.32;97988.34;7220637;40;20246;31
2024/01/05 20:52:55;;;;;;;19.40;8.33;;;;;;;6.90;82.72;97997.03;7183703;40;20275;31
2024/01/05 21:03:33;;;;;;;11.50;6.30;;;;;;;6.88;83.41;97991.00;7189406;40;20298;31
2024/01/05 21:13:57;;;;;;;5.80;3.60;;;;;;;6.88;82.63;97998.22;7174060;40;21313;31
2024/01/05 21:24:39;;;;;;;6.65;2.85;;;;;;;6.83;82.75;97988.00;7255446;39;20264;31
2024/01/05 21:30:16;;;;;;;4.57;3.03;;;;;;;6.80;83.45;97991.84;7320654;39;20460;31
2024/01/05 21:35:35;;;;;;;4.67;2.50;;;;;;;6.82;83.46;97996.22;7237840;40;20313;31
2024/01/05 21:41:11;;;;;;;4.73;2.43;;;;;;;6.76;83.80;97993.22;7245568;40;20384;31
2024/01/05 21:46:46;;;;;;;5.40;1.80;;;;;;;6.74;83.70;97994.41;7278091;39;20257;31
2024/01/05 21:52:20;;;;;;;3.20;1.90;;;;;;;6.77;83.37;97996.72;7268903;39;20238;31
2024/01/05 21:57:55;;;;;;;4.55;1.70;;;;;;;6.73;84.12;97998.91;7285529;39;20303;31
2024/01/05 22:03:29;;;;;;;4.00;1.50;;;;;;;6.75;84.50;97998.75;7300893;39;20260;31
2024/01/05 22:14:10;;;;;;;5.80;2.20;;;;;;;6.79;84.06;98008.12;7283269;39;20265;31
2024/01/05 22:24:35;;;;;;;6.30;2.20;;;;;;;6.90;83.56;98007.72;7266062;40;20731;31
2024/01/05 22:30:11;;;;;;;3.70;2.10;;;;;;;6.90;83.55;98007.72;7294715;39;20400;31
2024/01/05 22:35:46;;;;;;;4.95;2.45;;;;;;;6.72;82.48;98005.28;7272110;39;20245;31
2024/01/05 22:41:22;;;;;;;3.93;2.40;;;;;;;6.63;83.75;98010.81;7254712;40;20390;31
2024/01/05 22:47:04;;;;;;;3.83;2.30;;;;;;;6.58;83.65;98018.56;7220567;40;20242;31
2024/01/05 22:52:32;;;;;;;2.43;1.90;;;;;;;6.56;84.04;98017.88;7208366;40;21167;31
2024/01/05 22:58:07;;;;;;;6.43;2.10;;;;;;;6.61;83.62;98013.69;7206284;40;20316;31
2024/01/05 23:03:43;;;;;;;3.07;2.10;;;;;;;6.60;84.57;98003.97;7202382;40;20246;31
2024/01/05 23:14:20;;;;;;;4.57;2.03;;;;;;;6.61;83.89;97994.09;7269705;39;21363;31
2024/01/05 23:19:57;;;;;;;5.23;2.07;;;;;;;6.63;84.06;97997.44;7243299;40;20257;31
2024/01/05 23:25:18;;;;;;;5.43;2.30;;;;;;;6.64;84.34;97999.09;7215504;40;20250;31
2024/01/05 23:30:38;;;;;;;3.63;1.87;;;;;;;6.66;83.95;98005.97;7201091;40;20238;31
2024/01/05 23:36:13;;;;;;;3.90;2.10;;;;;;;6.62;84.23;98006.50;7215907;40;20245;31
2024/01/05 23:41:49;;;;;;;4.10;1.90;;;;;;;6.56;84.14;97999.13;7253982;39;20253;31
2024/01/05 23:47:11;;;;;;;4.70;2.40;;;;;;;6.58;83.99;98016.69;7244825;40;20265;31
2024/01/05 23:52:44;;;;;;;4.05;1.70;;;;;;;6.46;83.75;98014.53;7256362;40;20375;31
2024/01/05 23:58:18;;;;;;;4.57;1.80;;;;;;;6.36;84.82;98009.38;7034854;40;20281;31
